Startpagina
METAR-TAF:

METAR-TAF

Vliegvelden :

East Midlands Airport

East Midlands, Engeland

breedte: 52-50N, lengte: 001-20W, hoogte: 94 m

Actueel weer

Dit bericht is 42 minuten geleden gemaakt, om 03:20 UTC
Wind 5 kt uit het zuidwesten
Temperatuur 16°C
Vochtigheid 94%
Druk 1018 hPa
Zicht: 8000 m

METAR: EGNX 260320Z 22005KT 8000 NSC 16/15 Q1018

Tijdstip: 05:02 (04:02 UTC)

Verwachting

Dit bericht is 5 uur en het 5 minuten geleden gemaakt, om 22:57 UTC
Verwachting geldig van 26 om 00 UTC tot 26 om 24 UTC
Wind 4 kt uit variabele richting
Zicht 10 km of meer
Weinig wolken op 4000 ft
Tijdelijke
van 26 om 00 UTC tot 26 om 09 UTC
Zicht: 9000 m
Kans 40% :
Tijdelijke
van 26 om 03 UTC tot 26 om 09 UTC
Gebroken wolken op 900 ft
Kans 30% :
Tijdelijke
van 26 om 04 UTC tot 26 om 08 UTC
Zicht: 3000 m
Gebroken wolken op 400 ft
nevel

TAF: EGNX 252257Z 2600/2624 VRB04KT 9999 FEW040 TEMPO 2600/2609 9000 PROB40 TEMPO 2603/2609 BKN009 PROB30 TEMPO 2604/2608 3000 BR BKN004

Waarnemingen en weersverwachtingen van meer dan 4000 vliegvelden (METAR en TAF).

De beschikbare stations zijn de gele en rode punten op de kaart.

Ga met uw muis naar het station om de naam te zien.

Klik dan om waarnemingen en weersverwachtingen te zien.

kaart wijzigen: klik op de groene knoppen met een zwart kruis om in te zoomen, op de groene knop met een streepje om uit te zoomen of op de groene pijlen voor aangrenzende kaarten.


METAR-TAF: